San Martin, Argentina
Current Conditions -  °F | °C
As of 1:00 AM on Tuesday 21 Oct 2014 (Local Time) from SAME Reporting Station
Clear Clear  
Wind Chill: 70°   Ceiling: Unl
Heat Index: 70°   Visibility: 6mi
Dew Point: 43°   Wind: 3mph
Humidity: 38%   Direction: 320°NW
Pressure: 30"   Gusts: NA
Location:  33.07°S, 68.49°W
Report Text: SAME 210400Z 32003KT CAVOK 21/06 Q1016
Loading
Personal Weather Stations






























Interactive Weather Map
Tropical Storm Tracking
New forecast layout! Learn more

10-Day Weather Forecast

Advertisements
Track Severe Weather on mobile